Time;durP1;ratioP1;P1;durP2;ratioP2;P2;SDS_P1;SDS_P2;PMS_P1;PMS_P2;Temp;Humidity;BMP_temperature;BMP_pressure;BME280_temperature;BME280_humidity;BME280_pressure;Samples;Min_cycle;Max_cycle;Signal;HPM_P1;HPM_P2
2023/06/08 00:00:44;;;;;;;7.47;6.78;;;;;18.60;98494.00;;;;5094561;28;20108;-61
2023/06/08 00:03:12;;;;;;;7.93;6.78;;;;;18.70;98501.00;;;;5098594;28;20036;-61
2023/06/08 00:05:46;;;;;;;8.98;7.15;;;;;18.80;98497.00;;;;5101948;28;20055;-61
2023/06/08 00:08:12;;;;;;;6.90;6.20;;;;;18.70;98494.00;;;;5096132;28;20048;-61
2023/06/08 00:10:43;;;;;;;8.25;7.03;;;;;18.60;98487.00;;;;5096641;28;20063;-63
2023/06/08 00:13:11;;;;;;;7.90;6.93;;;;;18.60;98487.00;;;;5077785;28;20040;-63
2023/06/08 00:15:39;;;;;;;7.68;6.63;;;;;18.60;98495.00;;;;5091087;28;20056;-60
2023/06/08 00:18:08;;;;;;;8.68;7.53;;;;;18.50;98485.00;;;;5092442;28;20482;-61
2023/06/08 00:20:35;;;;;;;9.05;7.15;;;;;18.40;98483.00;;;;5080773;28;20070;-60
2023/06/08 00:23:05;;;;;;;8.10;7.05;;;;;18.50;98480.00;;;;5078070;28;20055;-61
2023/06/08 00:25:32;;;;;;;8.18;7.38;;;;;18.40;98478.00;;;;5082261;28;20047;-64
2023/06/08 00:27:58;;;;;;;7.85;6.97;;;;;18.50;98485.00;;;;5086829;28;20041;-60
2023/06/08 00:30:26;;;;;;;7.90;6.82;;;;;18.50;98477.00;;;;5061852;28;20058;-60
2023/06/08 00:32:53;;;;;;;7.85;7.00;;;;;18.50;98474.00;;;;5076919;28;20060;-60
2023/06/08 00:35:19;;;;;;;7.22;6.50;;;;;18.50;98477.00;;;;5076912;28;20056;-61
2023/06/08 00:37:46;;;;;;;9.60;7.35;;;;;18.50;98473.00;;;;5076747;28;20048;-61
2023/06/08 00:40:13;;;;;;;7.85;7.15;;;;;18.50;98470.00;;;;5077952;28;20059;-61
2023/06/08 00:42:39;;;;;;;7.40;6.70;;;;;18.40;98468.00;;;;5078225;28;20495;-60
2023/06/08 00:45:10;;;;;;;7.22;6.53;;;;;18.40;98471.00;;;;5060037;28;20497;-63
2023/06/08 00:47:36;;;;;;;8.07;7.35;;;;;18.40;98482.00;;;;5076682;28;20497;-61
2023/06/08 00:50:07;;;;;;;8.32;7.18;;;;;18.30;98477.00;;;;5076487;28;20052;-61
2023/06/08 00:52:37;;;;;;;9.13;7.97;;;;;18.30;98467.00;;;;5073436;28;20154;-59
2023/06/08 00:55:04;;;;;;;9.43;7.40;;;;;18.10;98469.00;;;;5074930;28;20072;-61
2023/06/08 00:57:32;;;;;;;7.85;7.00;;;;;18.00;98472.00;;;;5074973;28;20044;-62
2023/06/08 01:00:07;;;;;;;8.25;6.93;;;;;17.90;98473.00;;;;5073510;28;20048;-61
2023/06/08 01:02:35;;;;;;;8.82;7.35;;;;;18.00;98471.00;;;;5074904;28;20044;-61
2023/06/08 01:05:03;;;;;;;7.07;6.38;;;;;18.00;98472.00;;;;5074195;28;20131;-60
2023/06/08 01:07:36;;;;;;;8.05;7.32;;;;;18.00;98471.00;;;;5073677;28;20055;-62
2023/06/08 01:10:13;;;;;;;9.65;8.65;;;;;17.90;98476.00;;;;5073136;28;20528;-62
2023/06/08 01:12:56;;;;;;;11.82;7.50;;;;;18.00;98469.00;;;;5073274;28;20402;-61
2023/06/08 01:15:29;;;;;;;8.90;7.30;;;;;17.90;98469.00;;;;5074341;28;20400;-62
2023/06/08 01:18:04;;;;;;;8.45;6.97;;;;;17.90;98465.00;;;;5074169;28;20072;-61
2023/06/08 01:20:54;;;;;;;8.93;8.05;;;;;17.80;98475.00;;;;5074064;28;20098;-62
2023/06/08 01:23:44;;;;;;;7.75;6.95;;;;;17.80;98468.00;;;;5072903;28;20043;-61
2023/06/08 01:26:15;;;;;;;8.07;7.28;;;;;17.80;98465.00;;;;5072903;28;20398;-61
2023/06/08 01:28:47;;;;;;;8.30;7.20;;;;;17.70;98465.00;;;;5074201;28;20044;-60
2023/06/08 01:31:14;;;;;;;7.70;7.00;;;;;17.70;98459.00;;;;5072847;28;20040;-61
2023/06/08 01:33:41;;;;;;;8.60;7.80;;;;;17.80;98459.00;;;;5072803;28;20052;-62
2023/06/08 01:36:19;;;;;;;7.53;6.90;;;;;17.60;98459.00;;;;5056009;28;20144;-62
2023/06/08 01:38:59;;;;;;;8.60;7.80;;;;;17.50;98462.00;;;;5072674;28;20055;-61
2023/06/08 01:41:41;;;;;;;11.25;8.40;;;;;17.30;98461.00;;;;5072994;28;20041;-61
2023/06/08 01:44:12;;;;;;;9.27;7.43;;;;;17.20;98463.00;;;;5072352;28;20048;-62
2023/06/08 01:46:38;;;;;;;8.27;7.40;;;;;17.20;98462.00;;;;5073562;28;20044;-61
2023/06/08 01:49:06;;;;;;;8.27;7.45;;;;;17.10;98466.00;;;;5072498;28;20044;-62
2023/06/08 01:51:33;;;;;;;8.02;7.32;;;;;17.00;98458.00;;;;5072150;28;20056;-62
2023/06/08 01:54:02;;;;;;;9.40;8.20;;;;;16.90;98455.00;;;;5072776;28;20041;-61
2023/06/08 01:56:33;;;;;;;8.55;7.00;;;;;16.80;98460.00;;;;5073689;28;20041;-62
2023/06/08 01:59:00;;;;;;;8.55;7.75;;;;;16.80;98456.00;;;;5072167;28;20459;-62
2023/06/08 02:01:26;;;;;;;8.60;7.80;;;;;16.80;98458.00;;;;5072147;28;20519;-62
2023/06/08 02:03:53;;;;;;;8.73;7.85;;;;;16.80;98453.00;;;;5072128;28;20091;-62
2023/06/08 02:06:20;;;;;;;8.02;7.22;;;;;16.70;98455.00;;;;5055533;28;20051;-62
2023/06/08 02:08:47;;;;;;;8.30;7.45;;;;;16.70;98447.00;;;;5072256;28;20123;-62
2023/06/08 02:11:13;;;;;;;9.02;8.15;;;;;16.70;98449.00;;;;5073127;28;20060;-62
2023/06/08 02:13:41;;;;;;;8.20;7.40;;;;;16.70;98441.00;;;;5073037;28;20051;-62
2023/06/08 02:16:08;;;;;;;8.20;7.40;;;;;16.70;98441.00;;;;5072180;28;20148;-61
2023/06/08 02:18:40;;;;;;;8.85;7.63;;;;;16.60;98437.00;;;;5073224;28;20040;-62
2023/06/08 02:21:10;;;;;;;9.48;8.55;;;;;16.60;98438.00;;;;5071642;28;20048;-61
2023/06/08 02:23:38;;;;;;;8.88;8.07;;;;;16.60;98439.00;;;;5072006;28;20122;-62
2023/06/08 02:26:07;;;;;;;10.90;8.40;;;;;16.60;98445.00;;;;5071921;28;20070;-61
2023/06/08 02:28:34;;;;;;;8.75;7.85;;;;;16.60;98440.00;;;;5071908;28;20036;-62
2023/06/08 02:31:03;;;;;;;9.25;8.35;;;;;16.40;98439.00;;;;5073746;28;20056;-62
2023/06/08 02:33:30;;;;;;;8.55;7.68;;;;;16.30;98435.00;;;;5073529;28;20135;-62
2023/06/08 02:35:56;;;;;;;10.57;8.65;;;;;16.20;98432.00;;;;5073358;28;20044;-62
2023/06/08 02:38:23;;;;;;;10.75;8.82;;;;;16.10;98437.00;;;;5072193;28;20602;-62
2023/06/08 02:40:50;;;;;;;9.95;8.88;;;;;16.10;98435.00;;;;5072022;28;20049;-62
2023/06/08 02:43:19;;;;;;;9.70;8.60;;;;;16.10;98438.00;;;;5055918;28;20493;-61
2023/06/08 02:45:48;;;;;;;8.82;7.93;;;;;16.20;98437.00;;;;5071750;28;20696;-61
2023/06/08 02:48:16;;;;;;;9.38;8.48;;;;;16.20;98427.00;;;;5072065;28;20469;-61
2023/06/08 02:50:43;;;;;;;9.00;8.10;;;;;16.10;98438.00;;;;5072822;28;20456;-60
2023/06/08 02:53:11;;;;;;;9.07;8.23;;;;;16.00;98424.00;;;;5071374;28;20040;-60
2023/06/08 02:55:37;;;;;;;9.02;8.23;;;;;16.00;98423.00;;;;5071348;28;20041;-61
2023/06/08 02:58:10;;;;;;;9.23;8.30;;;;;16.00;98425.00;;;;5071850;28;20051;-60
2023/06/08 03:00:37;;;;;;;8.85;7.95;;;;;16.00;98428.00;;;;5071630;28;20417;-59
2023/06/08 03:03:31;;;;;;;9.43;8.43;;;;;16.10;98423.00;;;;5058346;28;20396;-61
2023/06/08 03:06:05;;;;;;;9.40;8.13;;;;;16.10;98426.00;;;;5071092;28;20468;-61
2023/06/08 03:08:36;;;;;;;9.90;8.02;;;;;16.10;98420.00;;;;5071195;28;20052;-62
2023/06/08 03:11:06;;;;;;;9.02;8.13;;;;;16.00;98428.00;;;;5070941;28;20517;-61
2023/06/08 03:13:35;;;;;;;8.82;8.02;;;;;16.10;98432.00;;;;5071118;28;20509;-61
2023/06/08 03:16:02;;;;;;;9.32;8.45;;;;;16.20;98432.00;;;;5070769;28;20582;-61
2023/06/08 03:18:30;;;;;;;11.25;10.15;;;;;16.30;98438.00;;;;5070989;28;20052;-61
2023/06/08 03:20:58;;;;;;;10.18;8.90;;;;;16.20;98437.00;;;;5071043;28;20097;-62
2023/06/08 03:23:24;;;;;;;10.57;9.55;;;;;16.20;98432.00;;;;5072865;28;20041;-61
2023/06/08 03:25:52;;;;;;;11.45;9.25;;;;;16.10;98442.00;;;;5071268;28;20686;-61
2023/06/08 03:28:19;;;;;;;10.13;8.95;;;;;16.20;98426.00;;;;5072162;28;20036;-61
2023/06/08 03:30:47;;;;;;;9.63;8.73;;;;;16.30;98430.00;;;;5070865;28;20048;-62
2023/06/08 03:33:16;;;;;;;9.25;8.35;;;;;16.40;98430.00;;;;5070462;28;20040;-61
2023/06/08 03:35:49;;;;;;;9.85;8.95;;;;;16.30;98429.00;;;;5071150;28;20090;-62
2023/06/08 03:38:21;;;;;;;10.73;9.15;;;;;16.10;98425.00;;;;5071159;28;20159;-63
2023/06/08 03:40:50;;;;;;;9.88;8.80;;;;;16.00;98418.00;;;;5070306;28;20068;-62
2023/06/08 03:43:19;;;;;;;13.02;9.25;;;;;16.00;98420.00;;;;5070229;28;20040;-61
2023/06/08 03:45:46;;;;;;;9.77;8.80;;;;;16.00;98423.00;;;;5053814;28;20131;-61
2023/06/08 03:48:13;;;;;;;10.20;9.10;;;;;15.90;98419.00;;;;5070391;28;20051;-61
2023/06/08 03:50:43;;;;;;;10.50;9.48;;;;;15.90;98424.00;;;;5070193;28;20068;-61
2023/06/08 03:53:11;;;;;;;9.85;8.93;;;;;15.80;98421.00;;;;5070361;28;20066;-61
2023/06/08 03:55:38;;;;;;;10.43;9.35;;;;;15.80;98417.00;;;;5070562;28;20068;-61
2023/06/08 03:58:05;;;;;;;10.48;9.38;;;;;15.70;98427.00;;;;5072041;28;20493;-61
2023/06/08 04:00:32;;;;;;;13.52;9.90;;;;;15.70;98426.00;;;;5070314;28;20557;-61
2023/06/08 04:03:00;;;;;;;12.60;11.30;;;;;15.80;98421.00;;;;5070566;28;20523;-60
2023/06/08 04:05:27;;;;;;;10.02;8.85;;;;;15.90;98419.00;;;;5053900;28;20055;-61
2023/06/08 04:07:55;;;;;;;11.23;9.55;;;;;16.10;98422.00;;;;5070523;28;20143;-61
2023/06/08 04:10:23;;;;;;;11.55;9.98;;;;;16.20;98421.00;;;;5070345;28;20056;-61
2023/06/08 04:12:49;;;;;;;10.43;9.43;;;;;16.30;98419.00;;;;5070725;28;20469;-60
2023/06/08 04:15:16;;;;;;;10.55;9.45;;;;;16.20;98423.00;;;;5070678;28;20417;-63
2023/06/08 04:17:46;;;;;;;9.77;8.85;;;;;16.40;98422.00;;;;5070511;28;20045;-60
2023/06/08 04:20:16;;;;;;;10.45;9.45;;;;;16.40;98425.00;;;;5070187;28;20041;-60
2023/06/08 04:22:43;;;;;;;11.50;10.30;;;;;16.40;98421.00;;;;5071695;28;20506;-61
2023/06/08 04:25:12;;;;;;;10.88;9.82;;;;;16.40;98425.00;;;;5070401;28;20045;-60
2023/06/08 04:27:38;;;;;;;10.63;9.65;;;;;16.50;98420.00;;;;5075396;28;20090;-60
2023/06/08 04:30:06;;;;;;;10.82;9.68;;;;;16.60;98423.00;;;;5061404;28;20059;-63
2023/06/08 04:32:33;;;;;;;10.82;9.70;;;;;16.80;98416.00;;;;5076478;28;20090;-61
2023/06/08 04:35:03;;;;;;;10.70;9.73;;;;;16.90;98426.00;;;;5074024;28;20401;-63
2023/06/08 04:37:32;;;;;;;16.83;12.65;;;;;17.00;98424.00;;;;5073818;28;20090;-61
2023/06/08 04:39:58;;;;;;;10.20;9.25;;;;;16.90;98415.00;;;;5073796;28;20324;-60
2023/06/08 04:42:27;;;;;;;10.35;9.30;;;;;16.90;98421.00;;;;5057683;28;20398;-61
2023/06/08 04:44:54;;;;;;;10.55;9.55;;;;;16.90;98415.00;;;;5073657;28;20055;-61
2023/06/08 04:47:21;;;;;;;12.45;9.93;;;;;17.00;98419.00;;;;5073843;28;20040;-61
2023/06/08 04:49:48;;;;;;;11.55;10.40;;;;;17.00;98418.00;;;;5073719;28;20513;-61
2023/06/08 04:52:16;;;;;;;10.40;9.30;;;;;17.10;98422.00;;;;5074930;28;20040;-64
2023/06/08 04:54:44;;;;;;;11.73;10.52;;;;;17.20;98418.00;;;;5074959;28;20627;-62
2023/06/08 04:57:11;;;;;;;11.50;9.65;;;;;17.20;98419.00;;;;5073382;28;20040;-60
2023/06/08 04:59:38;;;;;;;10.85;9.85;;;;;17.30;98422.00;;;;5074523;28;20043;-62
2023/06/08 05:02:05;;;;;;;10.80;9.77;;;;;17.50;98425.00;;;;5073403;28;20102;-63
2023/06/08 05:04:31;;;;;;;11.73;10.48;;;;;17.40;98426.00;;;;5073788;28;20041;-63
2023/06/08 05:06:58;;;;;;;10.90;9.88;;;;;17.30;98424.00;;;;5074856;28;20044;-63
2023/06/08 05:09:25;;;;;;;13.15;10.60;;;;;17.50;98434.00;;;;5073384;28;20099;-63
2023/06/08 05:11:51;;;;;;;10.95;9.90;;;;;17.60;98428.00;;;;5073383;28;20056;-63
2023/06/08 05:14:18;;;;;;;10.70;9.70;;;;;17.70;98428.00;;;;5074724;28;20072;-61
2023/06/08 05:16:44;;;;;;;11.63;10.52;;;;;17.70;98432.00;;;;5074978;28;20128;-61
2023/06/08 05:19:13;;;;;;;10.68;9.68;;;;;17.80;98429.00;;;;5074290;28;20127;-62
2023/06/08 05:21:41;;;;;;;11.02;9.93;;;;;18.00;98436.00;;;;5073117;28;20055;-62
2023/06/08 05:24:08;;;;;;;10.85;9.85;;;;;18.10;98439.00;;;;5074217;28;20048;-62
2023/06/08 05:26:35;;;;;;;11.40;10.30;;;;;18.10;98432.00;;;;5074139;28;20080;-62
2023/06/08 05:29:01;;;;;;;11.50;10.40;;;;;18.20;98434.00;;;;5073933;28;20494;-64
2023/06/08 05:31:28;;;;;;;11.65;10.45;;;;;18.20;98431.00;;;;5074221;28;20568;-62
2023/06/08 05:33:55;;;;;;;13.00;11.35;;;;;18.40;98430.00;;;;5072790;28;20048;-62
2023/06/08 05:36:21;;;;;;;12.55;10.82;;;;;18.40;98428.00;;;;5072933;28;20459;-63
2023/06/08 05:38:48;;;;;;;10.55;9.55;;;;;18.50;98424.00;;;;5073904;28;20466;-63
2023/06/08 05:41:15;;;;;;;12.07;10.82;;;;;18.70;98428.00;;;;5074067;28;20496;-62
2023/06/08 05:43:42;;;;;;;11.90;10.80;;;;;18.70;98431.00;;;;5074117;28;20064;-62
2023/06/08 05:46:09;;;;;;;13.05;11.85;;;;;18.90;98425.00;;;;5074224;28;20523;-63
2023/06/08 05:48:35;;;;;;;11.60;10.60;;;;;19.00;98427.00;;;;5074217;28;20044;-63
2023/06/08 05:51:03;;;;;;;13.05;11.43;;;;;18.80;98429.00;;;;5073267;28;20402;-62
2023/06/08 05:53:29;;;;;;;12.38;11.07;;;;;18.90;98427.00;;;;5073541;28;20037;-62
2023/06/08 05:55:56;;;;;;;11.50;10.40;;;;;19.10;98428.00;;;;5073699;28;20378;-61
2023/06/08 05:58:24;;;;;;;12.18;10.88;;;;;19.20;98429.00;;;;5073723;28;20063;-61
2023/06/08 06:01:07;;;;;;;13.25;11.95;;;;;19.40;98435.00;;;;5072269;28;20446;-62
2023/06/08 06:03:33;;;;;;;12.60;11.40;;;;;19.60;98435.00;;;;5073742;28;20066;-63
2023/06/08 06:06:01;;;;;;;11.27;10.18;;;;;19.60;98448.00;;;;5073205;28;20048;-62
2023/06/08 06:08:27;;;;;;;10.75;9.60;;;;;19.80;98440.00;;;;5073352;28;20489;-61
2023/06/08 06:10:54;;;;;;;11.50;10.25;;;;;19.90;98445.00;;;;5073076;28;20489;-64
2023/06/08 06:13:21;;;;;;;11.45;10.25;;;;;19.90;98445.00;;;;5072057;28;20036;-64
2023/06/08 06:15:48;;;;;;;10.35;9.35;;;;;20.00;98444.00;;;;5073217;28;20036;-63
2023/06/08 06:18:14;;;;;;;11.75;9.80;;;;;20.00;98446.00;;;;5073276;28;20115;-61
2023/06/08 06:20:41;;;;;;;11.75;10.55;;;;;20.10;98453.00;;;;5073412;28;20044;-63
2023/06/08 06:23:07;;;;;;;13.55;10.02;;;;;20.00;98448.00;;;;5071715;28;20048;-60
2023/06/08 06:25:37;;;;;;;10.68;9.68;;;;;20.10;98446.00;;;;5071745;28;20596;-64
2023/06/08 06:28:04;;;;;;;11.52;10.35;;;;;20.10;98449.00;;;;5072774;28;20068;-64
2023/06/08 06:30:31;;;;;;;12.10;10.13;;;;;20.10;98450.00;;;;5072584;28;20052;-64
2023/06/08 06:32:57;;;;;;;12.75;9.95;;;;;20.20;98449.00;;;;5072638;28;20044;-64
2023/06/08 06:35:24;;;;;;;10.07;9.07;;;;;20.40;98449.00;;;;5072722;28;20056;-64
2023/06/08 06:37:53;;;;;;;11.60;9.20;;;;;20.50;98451.00;;;;5072665;28;20041;-65
2023/06/08 06:40:20;;;;;;;9.65;8.75;;;;;20.60;98447.00;;;;5071180;28;20471;-65
2023/06/08 06:42:46;;;;;;;10.00;9.00;;;;;20.60;98443.00;;;;5072549;28;20079;-63
2023/06/08 06:45:25;;;;;;;9.73;8.70;;;;;20.70;98453.00;;;;5071062;28;20533;-64
2023/06/08 06:47:51;;;;;;;10.05;9.05;;;;;20.80;98464.00;;;;5054603;28;20135;-64
2023/06/08 06:50:18;;;;;;;11.20;10.15;;;;;20.90;98465.00;;;;5071568;28;20049;-64
2023/06/08 06:52:45;;;;;;;12.30;10.88;;;;;20.90;98470.00;;;;5072307;28;20086;-63
2023/06/08 06:55:11;;;;;;;10.93;9.02;;;;;21.00;98463.00;;;;5054542;28;20072;-64
2023/06/08 06:57:40;;;;;;;9.25;8.25;;;;;21.10;98470.00;;;;5070920;28;20048;-65
2023/06/08 07:00:07;;;;;;;10.30;8.07;;;;;21.10;98468.00;;;;5072114;28;20041;-65
2023/06/08 07:02:37;;;;;;;8.20;7.45;;;;;21.10;98457.00;;;;5054440;28;20413;-64
2023/06/08 07:05:06;;;;;;;8.68;7.80;;;;;21.20;98462.00;;;;5072186;28;20131;-64
2023/06/08 07:07:36;;;;;;;9.38;8.38;;;;;21.30;98457.00;;;;5072028;28;20501;-66
2023/06/08 07:10:03;;;;;;;8.98;8.13;;;;;21.40;98461.00;;;;5072307;28;20139;-66
2023/06/08 07:12:30;;;;;;;9.30;8.40;;;;;21.60;98462.00;;;;5071241;28;20550;-66
2023/06/08 07:14:57;;;;;;;9.13;8.30;;;;;21.70;98459.00;;;;5071176;28;20048;-66
2023/06/08 07:17:24;;;;;;;8.23;7.53;;;;;21.80;98471.00;;;;5071301;28;20066;-66
2023/06/08 07:19:52;;;;;;;8.93;8.02;;;;;21.80;98457.00;;;;5070955;28;20474;-66
2023/06/08 07:22:20;;;;;;;8.63;7.80;;;;;21.90;98458.00;;;;5072213;28;20098;-66
2023/06/08 07:25:07;;;;;;;10.48;8.25;;;;;22.00;98456.00;;;;5072269;28;20042;-66
2023/06/08 07:27:53;;;;;;;9.07;8.18;;;;;22.10;98461.00;;;;5071164;28;20400;-65
2023/06/08 07:30:20;;;;;;;10.05;9.02;;;;;22.30;98454.00;;;;5070605;28;20047;-66
2023/06/08 07:32:48;;;;;;;9.85;8.95;;;;;22.40;98453.00;;;;5070936;28;20729;-67
2023/06/08 07:35:15;;;;;;;8.75;7.63;;;;;22.40;98464.00;;;;5070796;28;20060;-66
2023/06/08 07:37:42;;;;;;;12.38;9.40;;;;;22.40;98461.00;;;;5071911;28;20501;-67
2023/06/08 07:40:11;;;;;;;9.20;8.30;;;;;22.50;98466.00;;;;5070629;28;20605;-66
2023/06/08 07:42:37;;;;;;;10.43;8.18;;;;;22.50;98451.00;;;;5070678;28;20040;-66
2023/06/08 07:45:04;;;;;;;11.82;8.18;;;;;22.60;98455.00;;;;5071896;28;20050;-65
2023/06/08 07:47:33;;;;;;;8.98;8.18;;;;;22.70;98445.00;;;;5054202;28;20048;-62
2023/06/08 07:50:03;;;;;;;9.70;7.43;;;;;22.70;98451.00;;;;5071824;28;20386;-62
2023/06/08 07:52:31;;;;;;;7.78;7.07;;;;;22.80;98440.00;;;;5071790;28;20040;-65
2023/06/08 07:54:57;;;;;;;8.55;7.75;;;;;22.90;98439.00;;;;5070341;28;20064;-63
2023/06/08 07:57:24;;;;;;;10.32;8.38;;;;;22.90;98440.00;;;;5070163;28;20393;-63
2023/06/08 07:59:51;;;;;;;9.75;7.97;;;;;23.00;98433.00;;;;5071343;28;20139;-63
2023/06/08 08:02:18;;;;;;;9.13;8.32;;;;;23.20;98435.00;;;;5075183;28;20079;-64
2023/06/08 08:04:45;;;;;;;8.27;7.47;;;;;23.40;98429.00;;;;5075871;28;20064;-63
2023/06/08 08:07:12;;;;;;;9.48;7.68;;;;;23.50;98422.00;;;;5075464;28;20052;-65
2023/06/08 08:09:41;;;;;;;7.93;7.22;;;;;23.50;98428.00;;;;5075376;28;20054;-65
2023/06/08 08:12:09;;;;;;;8.13;7.40;;;;;23.40;98424.00;;;;5074226;28;20044;-65
2023/06/08 08:14:37;;;;;;;8.73;7.85;;;;;23.50;98430.00;;;;5075476;28;20044;-64
2023/06/08 08:17:04;;;;;;;9.02;6.93;;;;;23.70;98422.00;;;;5074140;28;20180;-65
2023/06/08 08:19:31;;;;;;;7.55;6.85;;;;;23.90;98422.00;;;;5074004;28;20497;-65
2023/06/08 08:21:57;;;;;;;7.40;6.70;;;;;23.90;98409.00;;;;5075596;28;20040;-65
2023/06/08 08:24:24;;;;;;;7.47;6.78;;;;;24.00;98411.00;;;;5075491;28;20044;-64
2023/06/08 08:26:53;;;;;;;6.60;6.03;;;;;24.10;98411.00;;;;5074041;28;20080;-65
2023/06/08 08:29:20;;;;;;;7.70;7.05;;;;;24.10;98407.00;;;;5074098;28;20102;-65
2023/06/08 08:31:46;;;;;;;6.50;5.90;;;;;24.20;98404.00;;;;5076056;28;20067;-65
2023/06/08 08:34:13;;;;;;;8.88;6.30;;;;;24.30;98406.00;;;;5074339;28;20070;-65
2023/06/08 08:36:40;;;;;;;7.82;6.00;;;;;24.30;98409.00;;;;5074886;28;20083;-64
2023/06/08 08:39:09;;;;;;;7.10;6.43;;;;;24.40;98403.00;;;;5078981;28;20090;-65
2023/06/08 08:41:40;;;;;;;6.45;5.85;;;;;24.40;98406.00;;;;5076908;28;20103;-66
2023/06/08 08:44:15;;;;;;;6.60;5.90;;;;;24.30;98404.00;;;;5078186;28;20064;-66
2023/06/08 08:46:42;;;;;;;6.68;5.72;;;;;24.40;98400.00;;;;5075337;28;20088;-66
2023/06/08 08:49:15;;;;;;;6.25;5.75;;;;;24.60;98393.00;;;;5076322;28;20045;-66
2023/06/08 08:51:52;;;;;;;6.50;5.90;;;;;24.70;98396.00;;;;5076371;28;20036;-65
2023/06/08 08:54:31;;;;;;;6.07;5.38;;;;;24.80;98404.00;;;;5074465;28;20412;-66
2023/06/08 08:56:59;;;;;;;8.52;6.13;;;;;24.80;98411.00;;;;5075820;28;20059;-65
2023/06/08 08:59:29;;;;;;;5.53;4.90;;;;;24.90;98405.00;;;;5075604;28;20454;-63
2023/06/08 09:01:56;;;;;;;5.72;4.97;;;;;25.10;98407.00;;;;5075487;28;20127;-64
2023/06/08 09:04:26;;;;;;;5.63;5.10;;;;;25.30;98408.00;;;;5073684;28;20040;-63
2023/06/08 09:06:52;;;;;;;6.30;5.72;;;;;25.30;98404.00;;;;5073551;28;20080;-64
2023/06/08 09:09:23;;;;;;;6.13;5.53;;;;;25.40;98406.00;;;;5074511;28;20064;-63
2023/06/08 09:11:58;;;;;;;6.75;6.00;;;;;25.50;98393.00;;;;5073460;28;20114;-62
2023/06/08 09:14:25;;;;;;;6.18;5.68;;;;;25.60;98401.00;;;;5056326;28;20121;-64
2023/06/08 09:16:53;;;;;;;5.60;5.10;;;;;25.60;98394.00;;;;5073213;28;20452;-63
2023/06/08 09:19:20;;;;;;;5.95;5.35;;;;;25.70;98393.00;;;;5056244;28;20059;-62
2023/06/08 09:21:47;;;;;;;7.32;4.82;;;;;25.70;98397.00;;;;5074699;28;20044;-63
2023/06/08 09:24:20;;;;;;;5.60;4.95;;;;;25.80;98397.00;;;;5073397;28;20032;-62
2023/06/08 09:26:49;;;;;;;5.47;4.90;;;;;26.00;98393.00;;;;5072917;28;20052;-63
2023/06/08 09:29:40;;;;;;;5.18;4.72;;;;;26.30;98393.00;;;;5072874;28;20178;-63
2023/06/08 09:32:09;;;;;;;6.53;5.00;;;;;26.50;98397.00;;;;5072662;28;20069;-63
2023/06/08 09:34:54;;;;;;;5.13;4.63;;;;;26.50;98394.00;;;;5073296;28;20049;-63
2023/06/08 09:37:36;;;;;;;4.72;4.22;;;;;26.50;98391.00;;;;5072878;28;20054;-63
2023/06/08 09:40:10;;;;;;;6.33;4.23;;;;;26.60;98393.00;;;;5072919;28;20067;-62
2023/06/08 09:42:50;;;;;;;4.90;4.50;;;;;26.60;98394.00;;;;5073105;28;20068;-62
2023/06/08 09:45:18;;;;;;;5.22;4.80;;;;;26.70;98394.00;;;;5072607;28;20049;-62
2023/06/08 09:47:44;;;;;;;5.47;4.95;;;;;26.70;98394.00;;;;5056266;28;20477;-62
2023/06/08 09:50:11;;;;;;;5.03;4.40;;;;;26.70;98386.00;;;;5072953;28;20059;-62
2023/06/08 09:52:39;;;;;;;4.82;4.43;;;;;26.80;98386.00;;;;5074113;28;20136;-62
2023/06/08 09:55:06;;;;;;;3.97;3.67;;;;;27.00;98384.00;;;;5072415;28;20120;-63
2023/06/08 09:57:37;;;;;;;4.15;3.78;;;;;27.00;98378.00;;;;5072639;28;20052;-61
2023/06/08 10:00:14;;;;;;;4.10;3.70;;;;;27.20;98387.00;;;;5073968;28;20044;-62
2023/06/08 10:03:08;;;;;;;4.60;4.10;;;;;27.30;98376.00;;;;5072839;28;20053;-63
2023/06/08 10:05:38;;;;;;;4.57;4.18;;;;;27.40;98385.00;;;;5072553;28;20056;-66
2023/06/08 10:08:08;;;;;;;4.65;3.78;;;;;27.70;98374.00;;;;5071874;28;20424;-63
2023/06/08 10:10:36;;;;;;;5.38;4.03;;;;;27.90;98376.00;;;;5055835;28;20090;-64
2023/06/08 10:13:07;;;;;;;3.90;3.45;;;;;28.00;98368.00;;;;5055770;28;20051;-64
2023/06/08 10:15:33;;;;;;;4.13;3.72;;;;;28.20;98372.00;;;;5073397;28;20037;-65
2023/06/08 10:18:01;;;;;;;7.30;3.95;;;;;28.30;98365.00;;;;5072236;28;20064;-66
2023/06/08 10:20:29;;;;;;;4.28;3.88;;;;;28.40;98372.00;;;;5071846;28;20144;-66
2023/06/08 10:22:58;;;;;;;4.38;3.85;;;;;28.60;98365.00;;;;5073565;28;20381;-65
2023/06/08 10:25:28;;;;;;;3.78;3.47;;;;;28.80;98372.00;;;;5072328;28;20098;-63
2023/06/08 10:28:02;;;;;;;4.03;3.72;;;;;28.90;98368.00;;;;5055450;28;20053;-63
2023/06/08 10:30:39;;;;;;;3.97;3.38;;;;;29.00;98363.00;;;;5073282;28;20044;-63
2023/06/08 10:33:12;;;;;;;5.32;4.82;;;;;29.20;98365.00;;;;5072446;28;20052;-63
2023/06/08 10:35:42;;;;;;;8.95;6.03;;;;;29.20;98368.00;;;;5072014;28;20111;-63
2023/06/08 10:38:13;;;;;;;5.82;3.90;;;;;29.10;98365.00;;;;5055206;28;20079;-62
2023/06/08 10:40:47;;;;;;;4.35;3.60;;;;;29.00;98359.00;;;;5071463;28;20045;-64
2023/06/08 10:43:13;;;;;;;4.10;3.70;;;;;29.00;98354.00;;;;5072126;28;20048;-61
2023/06/08 10:45:46;;;;;;;4.20;3.80;;;;;29.10;98357.00;;;;5071458;28;20052;-63
2023/06/08 10:48:18;;;;;;;5.07;3.85;;;;;29.40;98346.00;;;;5072645;28;20045;-61
2023/06/08 10:50:47;;;;;;;3.95;3.53;;;;;29.60;98350.00;;;;5054698;28;20051;-62
2023/06/08 10:53:18;;;;;;;4.50;3.80;;;;;29.60;98340.00;;;;5070928;28;20072;-63
2023/06/08 10:55:50;;;;;;;6.82;4.85;;;;;29.70;98350.00;;;;5070614;28;20044;-62
2023/06/08 10:58:21;;;;;;;4.13;3.47;;;;;29.70;98341.00;;;;5070881;28;20135;-62
2023/06/08 11:01:03;;;;;;;4.20;3.80;;;;;29.60;98348.00;;;;5071754;28;20070;-62
2023/06/08 11:03:45;;;;;;;3.88;3.58;;;;;29.40;98341.00;;;;5072025;28;20052;-61
2023/06/08 11:06:15;;;;;;;3.90;3.50;;;;;29.20;98347.00;;;;5070341;28;20069;-63
2023/06/08 11:08:42;;;;;;;3.70;3.40;;;;;29.10;98347.00;;;;5070420;28;20147;-63
2023/06/08 11:11:12;;;;;;;4.43;4.03;;;;;29.10;98337.00;;;;5071366;28;20036;-63
2023/06/08 11:13:39;;;;;;;5.25;3.88;;;;;29.10;98337.00;;;;5072012;28;20074;-62
2023/06/08 11:16:05;;;;;;;5.32;4.07;;;;;29.00;98341.00;;;;5071398;28;20044;-62
2023/06/08 11:18:33;;;;;;;4.45;4.05;;;;;29.00;98344.00;;;;5070247;28;20076;-63
2023/06/08 11:20:59;;;;;;;5.30;4.80;;;;;28.70;98335.00;;;;5069972;28;20103;-61
2023/06/08 11:23:30;;;;;;;4.97;4.00;;;;;28.70;98336.00;;;;5071772;28;20047;-62
2023/06/08 11:25:57;;;;;;;4.85;4.38;;;;;28.70;98336.00;;;;5070308;28;20037;-62
2023/06/08 11:28:24;;;;;;;5.15;4.65;;;;;28.60;98341.00;;;;5071531;28;20049;-62
2023/06/08 11:30:50;;;;;;;4.68;4.18;;;;;28.60;98330.00;;;;5069951;28;20048;-64
2023/06/08 11:33:19;;;;;;;4.32;3.85;;;;;28.80;98330.00;;;;5071380;28;20040;-63
2023/06/08 11:35:50;;;;;;;5.47;4.60;;;;;28.80;98317.00;;;;5069703;28;20048;-64
2023/06/08 11:38:17;;;;;;;5.80;4.15;;;;;28.60;98325.00;;;;5071786;28;20135;-61
2023/06/08 11:40:43;;;;;;;6.55;5.60;;;;;28.60;98324.00;;;;5071677;28;20387;-62
2023/06/08 11:43:11;;;;;;;5.93;4.57;;;;;28.50;98324.00;;;;5070543;28;20056;-62
2023/06/08 11:45:39;;;;;;;5.05;4.10;;;;;28.40;98318.00;;;;5071890;28;20040;-64
2023/06/08 11:48:06;;;;;;;3.97;3.67;;;;;28.50;98325.00;;;;5070493;28;20463;-63
2023/06/08 11:50:49;;;;;;;5.20;4.00;;;;;28.70;98313.00;;;;5071783;28;20055;-64
2023/06/08 11:53:22;;;;;;;4.82;4.40;;;;;29.20;98312.00;;;;5071777;28;20401;-64
2023/06/08 11:55:52;;;;;;;5.20;4.15;;;;;29.40;98310.00;;;;5072632;28;20041;-63
2023/06/08 11:58:24;;;;;;;4.90;4.30;;;;;29.50;98311.00;;;;5071729;28;20045;-62
2023/06/08 12:01:03;;;;;;;4.45;4.05;;;;;29.50;98309.00;;;;5071903;28;20067;-61
2023/06/08 12:03:33;;;;;;;3.97;3.58;;;;;29.40;98311.00;;;;5071002;28;20489;-61
2023/06/08 12:06:01;;;;;;;5.00;4.50;;;;;29.40;98305.00;;;;5071816;28;20032;-63
2023/06/08 12:08:28;;;;;;;5.45;3.85;;;;;29.40;98307.00;;;;5071969;28;20123;-63
2023/06/08 12:10:54;;;;;;;4.82;3.83;;;;;29.40;98307.00;;;;5071318;28;20119;-63
2023/06/08 12:13:22;;;;;;;4.07;3.72;;;;;29.40;98311.00;;;;5072113;28;20051;-63
2023/06/08 12:15:50;;;;;;;5.00;4.50;;;;;29.30;98306.00;;;;5071248;28;20047;-63
2023/06/08 12:18:18;;;;;;;4.82;4.20;;;;;29.40;98307.00;;;;5053716;28;20079;-63
2023/06/08 12:20:51;;;;;;;4.30;3.90;;;;;29.40;98304.00;;;;5070224;28;20090;-63
2023/06/08 12:23:18;;;;;;;4.28;3.88;;;;;29.40;98301.00;;;;5071574;28;20432;-62